sensor_id;sensor_type;location;lat;lon;timestamp;P1;durP1;ratioP1;P2;durP2;ratioP2
4634;SDS011;2330;48.158;11.816;2024-01-07T00:02:19;16.42;;;15.13;;
4634;SDS011;2330;48.158;11.816;2024-01-07T00:04:46;16.67;;;15.38;;
4634;SDS011;2330;48.158;11.816;2024-01-07T00:07:13;17.75;;;16.25;;
4634;SDS011;2330;48.158;11.816;2024-01-07T00:09:40;17.00;;;15.70;;
4634;SDS011;2330;48.158;11.816;2024-01-07T00:12:06;18.63;;;17.13;;
4634;SDS011;2330;48.158;11.816;2024-01-07T00:14:33;17.02;;;15.45;;
4634;SDS011;2330;48.158;11.816;2024-01-07T00:17:00;15.85;;;14.45;;
4634;SDS011;2330;48.158;11.816;2024-01-07T00:19:27;16.38;;;15.07;;
4634;SDS011;2330;48.158;11.816;2024-01-07T00:21:53;17.30;;;15.90;;
4634;SDS011;2330;48.158;11.816;2024-01-07T00:24:20;17.33;;;15.70;;
4634;SDS011;2330;48.158;11.816;2024-01-07T00:26:47;17.40;;;15.70;;
4634;SDS011;2330;48.158;11.816;2024-01-07T00:29:14;18.40;;;16.77;;
4634;SDS011;2330;48.158;11.816;2024-01-07T00:31:40;17.42;;;15.93;;
4634;SDS011;2330;48.158;11.816;2024-01-07T00:34:07;17.95;;;16.35;;
4634;SDS011;2330;48.158;11.816;2024-01-07T00:36:34;18.33;;;16.63;;
4634;SDS011;2330;48.158;11.816;2024-01-07T00:39:01;17.20;;;15.65;;
4634;SDS011;2330;48.158;11.816;2024-01-07T00:41:28;18.42;;;16.73;;
4634;SDS011;2330;48.158;11.816;2024-01-07T00:43:56;18.80;;;17.08;;
4634;SDS011;2330;48.158;11.816;2024-01-07T00:46:23;16.73;;;15.23;;
4634;SDS011;2330;48.158;11.816;2024-01-07T00:48:50;18.23;;;16.73;;
4634;SDS011;2330;48.158;11.816;2024-01-07T00:51:17;18.77;;;17.13;;
4634;SDS011;2330;48.158;11.816;2024-01-07T00:53:43;18.35;;;16.65;;
4634;SDS011;2330;48.158;11.816;2024-01-07T00:56:10;17.08;;;15.57;;
4634;SDS011;2330;48.158;11.816;2024-01-07T00:58:37;18.13;;;16.48;;
4634;SDS011;2330;48.158;11.816;2024-01-07T01:01:05;15.68;;;14.48;;
4634;SDS011;2330;48.158;11.816;2024-01-07T01:03:33;16.60;;;15.20;;
4634;SDS011;2330;48.158;11.816;2024-01-07T01:06:00;18.00;;;16.50;;
4634;SDS011;2330;48.158;11.816;2024-01-07T01:08:26;16.80;;;15.40;;
4634;SDS011;2330;48.158;11.816;2024-01-07T01:10:53;16.67;;;15.30;;
4634;SDS011;2330;48.158;11.816;2024-01-07T01:13:20;19.48;;;17.58;;
4634;SDS011;2330;48.158;11.816;2024-01-07T01:15:47;17.35;;;15.68;;
4634;SDS011;2330;48.158;11.816;2024-01-07T01:18:13;14.57;;;13.48;;
4634;SDS011;2330;48.158;11.816;2024-01-07T01:20:40;17.15;;;15.65;;
4634;SDS011;2330;48.158;11.816;2024-01-07T01:23:07;15.55;;;14.25;;
4634;SDS011;2330;48.158;11.816;2024-01-07T01:25:34;14.75;;;13.55;;
4634;SDS011;2330;48.158;11.816;2024-01-07T01:28:02;15.65;;;14.35;;
4634;SDS011;2330;48.158;11.816;2024-01-07T01:30:29;16.45;;;15.05;;
4634;SDS011;2330;48.158;11.816;2024-01-07T01:32:58;15.18;;;13.98;;
4634;SDS011;2330;48.158;11.816;2024-01-07T01:35:25;16.77;;;15.35;;
4634;SDS011;2330;48.158;11.816;2024-01-07T01:37:52;17.13;;;15.73;;
4634;SDS011;2330;48.158;11.816;2024-01-07T01:40:20;16.20;;;14.80;;
4634;SDS011;2330;48.158;11.816;2024-01-07T01:42:47;17.45;;;16.05;;
4634;SDS011;2330;48.158;11.816;2024-01-07T01:45:14;15.73;;;14.23;;
4634;SDS011;2330;48.158;11.816;2024-01-07T01:47:41;16.48;;;15.07;;
4634;SDS011;2330;48.158;11.816;2024-01-07T01:50:09;15.35;;;14.10;;
4634;SDS011;2330;48.158;11.816;2024-01-07T01:52:37;15.98;;;14.68;;
4634;SDS011;2330;48.158;11.816;2024-01-07T01:55:04;15.18;;;13.98;;
4634;SDS011;2330;48.158;11.816;2024-01-07T01:57:34;15.40;;;14.20;;
4634;SDS011;2330;48.158;11.816;2024-01-07T02:00:03;14.32;;;13.30;;
4634;SDS011;2330;48.158;11.816;2024-01-07T02:02:31;16.42;;;15.02;;
4634;SDS011;2330;48.158;11.816;2024-01-07T02:05:01;13.65;;;12.65;;
4634;SDS011;2330;48.158;11.816;2024-01-07T02:07:32;14.30;;;13.15;;
4634;SDS011;2330;48.158;11.816;2024-01-07T02:09:59;13.98;;;12.90;;
4634;SDS011;2330;48.158;11.816;2024-01-07T02:12:26;14.30;;;13.20;;
4634;SDS011;2330;48.158;11.816;2024-01-07T02:14:53;15.18;;;13.98;;
4634;SDS011;2330;48.158;11.816;2024-01-07T02:17:20;14.00;;;13.00;;
4634;SDS011;2330;48.158;11.816;2024-01-07T02:19:47;14.18;;;12.98;;
4634;SDS011;2330;48.158;11.816;2024-01-07T02:22:14;16.45;;;15.05;;
4634;SDS011;2330;48.158;11.816;2024-01-07T02:24:41;14.30;;;13.20;;
4634;SDS011;2330;48.158;11.816;2024-01-07T02:27:08;13.65;;;12.55;;
4634;SDS011;2330;48.158;11.816;2024-01-07T02:29:34;14.27;;;13.18;;
4634;SDS011;2330;48.158;11.816;2024-01-07T02:32:01;13.10;;;12.00;;
4634;SDS011;2330;48.158;11.816;2024-01-07T02:34:28;11.85;;;11.05;;
4634;SDS011;2330;48.158;11.816;2024-01-07T02:36:55;12.68;;;11.77;;
4634;SDS011;2330;48.158;11.816;2024-01-07T02:39:22;13.00;;;12.00;;
4634;SDS011;2330;48.158;11.816;2024-01-07T02:41:49;12.57;;;11.65;;
4634;SDS011;2330;48.158;11.816;2024-01-07T02:44:16;13.52;;;12.52;;
4634;SDS011;2330;48.158;11.816;2024-01-07T02:46:43;13.32;;;12.23;;
4634;SDS011;2330;48.158;11.816;2024-01-07T02:49:09;12.85;;;11.95;;
4634;SDS011;2330;48.158;11.816;2024-01-07T02:51:36;12.50;;;11.60;;
4634;SDS011;2330;48.158;11.816;2024-01-07T02:54:03;14.50;;;13.30;;
4634;SDS011;2330;48.158;11.816;2024-01-07T02:56:30;12.05;;;11.25;;
4634;SDS011;2330;48.158;11.816;2024-01-07T02:58:57;13.25;;;12.15;;
4634;SDS011;2330;48.158;11.816;2024-01-07T03:01:23;14.30;;;13.05;;
4634;SDS011;2330;48.158;11.816;2024-01-07T03:03:50;14.50;;;13.40;;
4634;SDS011;2330;48.158;11.816;2024-01-07T03:06:17;15.50;;;14.18;;
4634;SDS011;2330;48.158;11.816;2024-01-07T03:08:44;13.82;;;12.73;;
4634;SDS011;2330;48.158;11.816;2024-01-07T03:11:11;13.18;;;12.18;;
4634;SDS011;2330;48.158;11.816;2024-01-07T03:13:37;13.60;;;12.50;;
4634;SDS011;2330;48.158;11.816;2024-01-07T03:16:06;14.55;;;13.25;;
4634;SDS011;2330;48.158;11.816;2024-01-07T03:18:32;11.88;;;11.07;;
4634;SDS011;2330;48.158;11.816;2024-01-07T03:20:59;14.73;;;13.52;;
4634;SDS011;2330;48.158;11.816;2024-01-07T03:23:26;15.20;;;13.90;;
4634;SDS011;2330;48.158;11.816;2024-01-07T03:25:53;14.05;;;13.00;;
4634;SDS011;2330;48.158;11.816;2024-01-07T03:28:19;12.95;;;11.93;;
4634;SDS011;2330;48.158;11.816;2024-01-07T03:30:46;12.15;;;11.30;;
4634;SDS011;2330;48.158;11.816;2024-01-07T03:33:13;13.13;;;12.13;;
4634;SDS011;2330;48.158;11.816;2024-01-07T03:35:40;13.68;;;12.57;;
4634;SDS011;2330;48.158;11.816;2024-01-07T03:38:07;13.38;;;12.38;;
4634;SDS011;2330;48.158;11.816;2024-01-07T03:40:33;13.75;;;12.65;;
4634;SDS011;2330;48.158;11.816;2024-01-07T03:43:00;13.45;;;12.35;;
4634;SDS011;2330;48.158;11.816;2024-01-07T03:45:27;12.05;;;11.15;;
4634;SDS011;2330;48.158;11.816;2024-01-07T03:47:54;11.48;;;10.68;;
4634;SDS011;2330;48.158;11.816;2024-01-07T03:50:20;12.70;;;11.70;;
4634;SDS011;2330;48.158;11.816;2024-01-07T03:52:47;12.00;;;11.10;;
4634;SDS011;2330;48.158;11.816;2024-01-07T03:55:14;13.90;;;12.75;;
4634;SDS011;2330;48.158;11.816;2024-01-07T03:57:41;13.63;;;12.43;;
4634;SDS011;2330;48.158;11.816;2024-01-07T04:00:08;12.13;;;11.23;;
4634;SDS011;2330;48.158;11.816;2024-01-07T04:02:36;11.50;;;10.70;;
4634;SDS011;2330;48.158;11.816;2024-01-07T04:05:02;14.20;;;13.10;;
4634;SDS011;2330;48.158;11.816;2024-01-07T04:07:29;13.70;;;12.60;;
4634;SDS011;2330;48.158;11.816;2024-01-07T04:09:57;14.93;;;13.73;;
4634;SDS011;2330;48.158;11.816;2024-01-07T04:12:24;14.25;;;13.15;;
4634;SDS011;2330;48.158;11.816;2024-01-07T04:14:51;13.18;;;12.18;;
4634;SDS011;2330;48.158;11.816;2024-01-07T04:17:17;13.40;;;12.40;;
4634;SDS011;2330;48.158;11.816;2024-01-07T04:19:45;13.27;;;12.27;;
4634;SDS011;2330;48.158;11.816;2024-01-07T04:22:11;13.05;;;12.05;;
4634;SDS011;2330;48.158;11.816;2024-01-07T04:24:40;13.02;;;12.02;;
4634;SDS011;2330;48.158;11.816;2024-01-07T04:27:08;13.25;;;12.25;;
4634;SDS011;2330;48.158;11.816;2024-01-07T04:29:35;14.63;;;13.40;;
4634;SDS011;2330;48.158;11.816;2024-01-07T04:32:02;12.10;;;11.20;;
4634;SDS011;2330;48.158;11.816;2024-01-07T04:34:29;13.77;;;12.68;;
4634;SDS011;2330;48.158;11.816;2024-01-07T04:36:56;12.23;;;11.32;;
4634;SDS011;2330;48.158;11.816;2024-01-07T04:39:23;13.95;;;12.85;;
4634;SDS011;2330;48.158;11.816;2024-01-07T04:41:50;13.90;;;12.80;;
4634;SDS011;2330;48.158;11.816;2024-01-07T04:44:17;13.60;;;12.50;;
4634;SDS011;2330;48.158;11.816;2024-01-07T04:46:44;12.73;;;11.77;;
4634;SDS011;2330;48.158;11.816;2024-01-07T04:49:10;13.38;;;12.35;;
4634;SDS011;2330;48.158;11.816;2024-01-07T04:51:37;14.00;;;12.80;;
4634;SDS011;2330;48.158;11.816;2024-01-07T04:54:04;13.70;;;12.50;;
4634;SDS011;2330;48.158;11.816;2024-01-07T04:56:32;14.85;;;13.65;;
4634;SDS011;2330;48.158;11.816;2024-01-07T04:58:59;14.40;;;13.20;;
4634;SDS011;2330;48.158;11.816;2024-01-07T05:01:26;15.23;;;14.02;;
4634;SDS011;2330;48.158;11.816;2024-01-07T05:03:53;13.65;;;12.55;;
4634;SDS011;2330;48.158;11.816;2024-01-07T05:06:19;12.48;;;11.50;;
4634;SDS011;2330;48.158;11.816;2024-01-07T05:08:46;14.73;;;13.52;;
4634;SDS011;2330;48.158;11.816;2024-01-07T05:11:13;15.50;;;14.10;;
4634;SDS011;2330;48.158;11.816;2024-01-07T05:13:39;13.85;;;12.75;;
4634;SDS011;2330;48.158;11.816;2024-01-07T05:16:06;15.10;;;13.70;;
4634;SDS011;2330;48.158;11.816;2024-01-07T05:18:33;13.95;;;12.75;;
4634;SDS011;2330;48.158;11.816;2024-01-07T05:21:00;14.43;;;13.25;;
4634;SDS011;2330;48.158;11.816;2024-01-07T05:23:27;15.45;;;14.15;;
4634;SDS011;2330;48.158;11.816;2024-01-07T05:25:53;15.45;;;14.10;;
4634;SDS011;2330;48.158;11.816;2024-01-07T05:28:20;13.10;;;12.00;;
4634;SDS011;2330;48.158;11.816;2024-01-07T05:30:48;15.65;;;14.23;;
4634;SDS011;2330;48.158;11.816;2024-01-07T05:33:15;13.95;;;12.80;;
4634;SDS011;2330;48.158;11.816;2024-01-07T05:35:42;15.13;;;13.95;;
4634;SDS011;2330;48.158;11.816;2024-01-07T05:38:09;16.67;;;15.18;;
4634;SDS011;2330;48.158;11.816;2024-01-07T05:40:36;14.90;;;13.68;;
4634;SDS011;2330;48.158;11.816;2024-01-07T05:43:03;15.27;;;14.07;;
4634;SDS011;2330;48.158;11.816;2024-01-07T05:45:29;14.63;;;13.52;;
4634;SDS011;2330;48.158;11.816;2024-01-07T05:47:56;13.73;;;12.63;;
4634;SDS011;2330;48.158;11.816;2024-01-07T05:50:23;14.50;;;13.30;;
4634;SDS011;2330;48.158;11.816;2024-01-07T05:52:50;12.70;;;11.55;;
4634;SDS011;2330;48.158;11.816;2024-01-07T05:55:16;13.45;;;12.45;;
4634;SDS011;2330;48.158;11.816;2024-01-07T05:57:43;12.40;;;11.50;;
4634;SDS011;2330;48.158;11.816;2024-01-07T06:00:10;13.18;;;12.18;;
4634;SDS011;2330;48.158;11.816;2024-01-07T06:02:38;13.45;;;12.40;;
4634;SDS011;2330;48.158;11.816;2024-01-07T06:05:06;14.00;;;12.90;;
4634;SDS011;2330;48.158;11.816;2024-01-07T06:07:33;11.80;;;10.90;;
4634;SDS011;2330;48.158;11.816;2024-01-07T06:10:00;13.60;;;12.60;;
4634;SDS011;2330;48.158;11.816;2024-01-07T06:12:27;12.73;;;11.75;;
4634;SDS011;2330;48.158;11.816;2024-01-07T06:14:54;13.55;;;12.57;;
4634;SDS011;2330;48.158;11.816;2024-01-07T06:17:21;11.57;;;10.77;;
4634;SDS011;2330;48.158;11.816;2024-01-07T06:19:48;11.63;;;10.73;;
4634;SDS011;2330;48.158;11.816;2024-01-07T06:22:15;10.35;;;9.65;;
4634;SDS011;2330;48.158;11.816;2024-01-07T06:24:41;10.00;;;9.30;;
4634;SDS011;2330;48.158;11.816;2024-01-07T06:27:09;9.98;;;9.20;;
4634;SDS011;2330;48.158;11.816;2024-01-07T06:29:35;8.98;;;8.38;;
4634;SDS011;2330;48.158;11.816;2024-01-07T06:32:02;9.95;;;9.15;;
4634;SDS011;2330;48.158;11.816;2024-01-07T06:34:30;8.40;;;7.80;;
4634;SDS011;2330;48.158;11.816;2024-01-07T06:36:57;8.75;;;8.07;;
4634;SDS011;2330;48.158;11.816;2024-01-07T06:39:24;8.18;;;7.57;;
4634;SDS011;2330;48.158;11.816;2024-01-07T06:41:53;9.23;;;8.52;;
4634;SDS011;2330;48.158;11.816;2024-01-07T06:44:20;8.82;;;8.18;;
4634;SDS011;2330;48.158;11.816;2024-01-07T06:46:47;8.63;;;8.02;;
4634;SDS011;2330;48.158;11.816;2024-01-07T06:49:13;8.52;;;7.93;;
4634;SDS011;2330;48.158;11.816;2024-01-07T06:51:40;8.48;;;7.88;;
4634;SDS011;2330;48.158;11.816;2024-01-07T06:54:07;8.20;;;7.60;;
4634;SDS011;2330;48.158;11.816;2024-01-07T06:56:38;8.50;;;7.90;;
4634;SDS011;2330;48.158;11.816;2024-01-07T06:59:05;8.30;;;7.70;;
4634;SDS011;2330;48.158;11.816;2024-01-07T07:01:33;9.05;;;8.35;;
4634;SDS011;2330;48.158;11.816;2024-01-07T07:04:00;8.15;;;7.55;;
4634;SDS011;2330;48.158;11.816;2024-01-07T07:06:27;8.88;;;8.20;;
4634;SDS011;2330;48.158;11.816;2024-01-07T07:08:54;8.10;;;7.50;;
4634;SDS011;2330;48.158;11.816;2024-01-07T07:11:20;7.97;;;7.38;;
4634;SDS011;2330;48.158;11.816;2024-01-07T07:13:47;8.60;;;8.00;;
4634;SDS011;2330;48.158;11.816;2024-01-07T07:16:14;8.38;;;7.78;;
4634;SDS011;2330;48.158;11.816;2024-01-07T07:18:41;8.77;;;8.18;;
4634;SDS011;2330;48.158;11.816;2024-01-07T07:21:08;8.68;;;8.05;;
4634;SDS011;2330;48.158;11.816;2024-01-07T07:23:35;8.70;;;8.10;;
4634;SDS011;2330;48.158;11.816;2024-01-07T07:26:02;8.10;;;7.50;;
4634;SDS011;2330;48.158;11.816;2024-01-07T07:28:29;8.65;;;8.05;;
4634;SDS011;2330;48.158;11.816;2024-01-07T07:30:55;7.85;;;7.25;;
4634;SDS011;2330;48.158;11.816;2024-01-07T07:33:22;8.73;;;8.13;;
4634;SDS011;2330;48.158;11.816;2024-01-07T07:35:50;9.05;;;8.43;;
4634;SDS011;2330;48.158;11.816;2024-01-07T07:38:17;8.63;;;8.02;;
4634;SDS011;2330;48.158;11.816;2024-01-07T07:40:44;8.95;;;8.25;;
4634;SDS011;2330;48.158;11.816;2024-01-07T07:43:16;9.73;;;8.98;;
4634;SDS011;2330;48.158;11.816;2024-01-07T07:45:43;9.95;;;9.15;;
4634;SDS011;2330;48.158;11.816;2024-01-07T07:48:09;8.80;;;8.18;;
4634;SDS011;2330;48.158;11.816;2024-01-07T07:50:36;9.52;;;8.82;;
4634;SDS011;2330;48.158;11.816;2024-01-07T07:53:03;9.15;;;8.45;;
4634;SDS011;2330;48.158;11.816;2024-01-07T07:55:30;9.02;;;8.32;;
4634;SDS011;2330;48.158;11.816;2024-01-07T07:57:57;9.50;;;8.80;;
4634;SDS011;2330;48.158;11.816;2024-01-07T08:00:24;11.00;;;10.10;;
4634;SDS011;2330;48.158;11.816;2024-01-07T08:02:51;10.70;;;9.90;;
4634;SDS011;2330;48.158;11.816;2024-01-07T08:05:18;10.55;;;9.75;;
4634;SDS011;2330;48.158;11.816;2024-01-07T08:07:44;10.45;;;9.75;;
4634;SDS011;2330;48.158;11.816;2024-01-07T08:10:11;9.55;;;8.85;;
4634;SDS011;2330;48.158;11.816;2024-01-07T08:12:38;9.90;;;9.18;;
4634;SDS011;2330;48.158;11.816;2024-01-07T08:15:05;11.20;;;10.20;;
4634;SDS011;2330;48.158;11.816;2024-01-07T08:17:33;10.68;;;9.77;;
4634;SDS011;2330;48.158;11.816;2024-01-07T08:20:00;11.15;;;10.25;;
4634;SDS011;2330;48.158;11.816;2024-01-07T08:22:28;10.93;;;10.13;;
4634;SDS011;2330;48.158;11.816;2024-01-07T08:24:55;10.73;;;9.95;;
4634;SDS011;2330;48.158;11.816;2024-01-07T08:27:22;10.63;;;9.82;;
4634;SDS011;2330;48.158;11.816;2024-01-07T08:29:48;11.60;;;10.80;;
4634;SDS011;2330;48.158;11.816;2024-01-07T08:32:15;10.77;;;9.88;;
4634;SDS011;2330;48.158;11.816;2024-01-07T08:34:42;12.18;;;11.18;;
4634;SDS011;2330;48.158;11.816;2024-01-07T08:37:09;11.18;;;10.38;;
4634;SDS011;2330;48.158;11.816;2024-01-07T08:39:36;11.00;;;10.10;;
4634;SDS011;2330;48.158;11.816;2024-01-07T08:42:03;11.15;;;10.25;;
4634;SDS011;2330;48.158;11.816;2024-01-07T08:44:31;11.65;;;10.75;;
4634;SDS011;2330;48.158;11.816;2024-01-07T08:46:58;10.48;;;9.63;;
4634;SDS011;2330;48.158;11.816;2024-01-07T08:49:30;11.10;;;10.20;;
4634;SDS011;2330;48.158;11.816;2024-01-07T08:52:00;11.85;;;10.85;;
4634;SDS011;2330;48.158;11.816;2024-01-07T08:54:27;13.32;;;12.32;;
4634;SDS011;2330;48.158;11.816;2024-01-07T08:56:54;12.35;;;11.35;;
4634;SDS011;2330;48.158;11.816;2024-01-07T08:59:20;12.65;;;11.75;;
4634;SDS011;2330;48.158;11.816;2024-01-07T09:04:35;12.02;;;11.10;;
4634;SDS011;2330;48.158;11.816;2024-01-07T09:07:02;11.60;;;10.70;;
4634;SDS011;2330;48.158;11.816;2024-01-07T09:09:29;10.63;;;9.82;;
4634;SDS011;2330;48.158;11.816;2024-01-07T09:11:56;10.55;;;9.77;;
4634;SDS011;2330;48.158;11.816;2024-01-07T09:14:25;10.60;;;9.80;;
4634;SDS011;2330;48.158;11.816;2024-01-07T09:16:51;11.07;;;10.18;;
4634;SDS011;2330;48.158;11.816;2024-01-07T09:19:19;12.65;;;11.65;;
4634;SDS011;2330;48.158;11.816;2024-01-07T09:21:46;11.20;;;10.23;;
4634;SDS011;2330;48.158;11.816;2024-01-07T09:24:13;11.60;;;10.57;;
4634;SDS011;2330;48.158;11.816;2024-01-07T09:26:41;11.20;;;10.40;;
4634;SDS011;2330;48.158;11.816;2024-01-07T09:29:07;11.80;;;10.90;;
4634;SDS011;2330;48.158;11.816;2024-01-07T09:31:34;12.05;;;11.00;;
4634;SDS011;2330;48.158;11.816;2024-01-07T09:34:02;11.27;;;10.38;;
4634;SDS011;2330;48.158;11.816;2024-01-07T09:36:30;11.98;;;11.07;;
4634;SDS011;2330;48.158;11.816;2024-01-07T09:38:57;12.20;;;11.20;;
4634;SDS011;2330;48.158;11.816;2024-01-07T09:41:24;12.35;;;11.35;;
4634;SDS011;2330;48.158;11.816;2024-01-07T09:43:51;12.13;;;11.13;;
4634;SDS011;2330;48.158;11.816;2024-01-07T09:46:20;11.05;;;10.15;;
4634;SDS011;2330;48.158;11.816;2024-01-07T09:48:48;11.30;;;10.30;;
4634;SDS011;2330;48.158;11.816;2024-01-07T09:51:15;11.70;;;10.80;;
4634;SDS011;2330;48.158;11.816;2024-01-07T09:53:45;11.75;;;10.80;;
4634;SDS011;2330;48.158;11.816;2024-01-07T09:56:23;11.07;;;10.25;;
4634;SDS011;2330;48.158;11.816;2024-01-07T09:58:52;11.88;;;10.98;;
4634;SDS011;2330;48.158;11.816;2024-01-07T10:01:18;10.90;;;10.00;;
4634;SDS011;2330;48.158;11.816;2024-01-07T10:03:46;11.63;;;10.73;;
4634;SDS011;2330;48.158;11.816;2024-01-07T10:06:13;11.77;;;10.88;;
4634;SDS011;2330;48.158;11.816;2024-01-07T10:08:44;11.95;;;11.05;;
4634;SDS011;2330;48.158;11.816;2024-01-07T10:11:12;12.63;;;11.40;;
4634;SDS011;2330;48.158;11.816;2024-01-07T10:13:40;11.05;;;10.25;;
4634;SDS011;2330;48.158;11.816;2024-01-07T10:16:07;10.10;;;9.35;;
4634;SDS011;2330;48.158;11.816;2024-01-07T10:18:35;11.00;;;10.18;;
4634;SDS011;2330;48.158;11.816;2024-01-07T10:21:03;11.35;;;10.25;;
4634;SDS011;2330;48.158;11.816;2024-01-07T10:23:32;11.65;;;10.68;;
4634;SDS011;2330;48.158;11.816;2024-01-07T10:25:59;11.73;;;10.73;;
4634;SDS011;2330;48.158;11.816;2024-01-07T10:28:37;11.68;;;10.77;;
4634;SDS011;2330;48.158;11.816;2024-01-07T10:31:04;10.27;;;9.48;;
4634;SDS011;2330;48.158;11.816;2024-01-07T10:33:31;11.20;;;10.20;;
4634;SDS011;2330;48.158;11.816;2024-01-07T10:36:04;9.38;;;8.68;;
4634;SDS011;2330;48.158;11.816;2024-01-07T10:38:32;10.40;;;9.50;;
4634;SDS011;2330;48.158;11.816;2024-01-07T10:41:04;10.82;;;9.93;;
4634;SDS011;2330;48.158;11.816;2024-01-07T10:43:32;9.48;;;8.77;;
4634;SDS011;2330;48.158;11.816;2024-01-07T10:46:02;8.90;;;8.30;;
4634;SDS011;2330;48.158;11.816;2024-01-07T10:48:31;8.38;;;7.78;;
4634;SDS011;2330;48.158;11.816;2024-01-07T10:51:01;9.40;;;8.70;;
4634;SDS011;2330;48.158;11.816;2024-01-07T10:53:33;9.50;;;8.80;;
4634;SDS011;2330;48.158;11.816;2024-01-07T10:56:04;8.93;;;8.20;;
4634;SDS011;2330;48.158;11.816;2024-01-07T10:58:34;9.57;;;8.88;;
4634;SDS011;2330;48.158;11.816;2024-01-07T11:01:02;8.70;;;8.02;;
4634;SDS011;2330;48.158;11.816;2024-01-07T11:06:20;8.27;;;7.68;;
4634;SDS011;2330;48.158;11.816;2024-01-07T11:09:12;7.95;;;7.45;;
4634;SDS011;2330;48.158;11.816;2024-01-07T11:11:55;8.80;;;8.10;;
4634;SDS011;2330;48.158;11.816;2024-01-07T11:14:35;7.78;;;7.18;;
4634;SDS011;2330;48.158;11.816;2024-01-07T11:17:13;8.30;;;7.65;;
4634;SDS011;2330;48.158;11.816;2024-01-07T11:19:52;7.95;;;7.35;;
4634;SDS011;2330;48.158;11.816;2024-01-07T11:22:26;8.68;;;7.97;;
4634;SDS011;2330;48.158;11.816;2024-01-07T11:24:55;8.30;;;7.70;;
4634;SDS011;2330;48.158;11.816;2024-01-07T11:27:23;8.20;;;7.63;;
4634;SDS011;2330;48.158;11.816;2024-01-07T11:30:18;9.25;;;8.50;;
4634;SDS011;2330;48.158;11.816;2024-01-07T11:32:45;8.95;;;8.25;;
4634;SDS011;2330;48.158;11.816;2024-01-07T11:35:17;8.77;;;8.18;;
4634;SDS011;2330;48.158;11.816;2024-01-07T11:38:08;8.57;;;7.97;;
4634;SDS011;2330;48.158;11.816;2024-01-07T11:40:34;8.32;;;7.72;;
4634;SDS011;2330;48.158;11.816;2024-01-07T11:43:01;7.80;;;7.30;;
4634;SDS011;2330;48.158;11.816;2024-01-07T11:45:30;9.63;;;8.82;;
4634;SDS011;2330;48.158;11.816;2024-01-07T11:47:58;8.10;;;7.50;;
4634;SDS011;2330;48.158;11.816;2024-01-07T11:50:25;9.07;;;8.38;;
4634;SDS011;2330;48.158;11.816;2024-01-07T11:52:54;8.27;;;7.68;;
4634;SDS011;2330;48.158;11.816;2024-01-07T11:55:21;8.32;;;7.72;;
4634;SDS011;2330;48.158;11.816;2024-01-07T11:57:48;8.73;;;8.05;;
4634;SDS011;2330;48.158;11.816;2024-01-07T12:00:15;8.57;;;7.97;;
4634;SDS011;2330;48.158;11.816;2024-01-07T12:02:42;8.45;;;7.82;;
4634;SDS011;2330;48.158;11.816;2024-01-07T12:05:09;9.38;;;8.68;;
4634;SDS011;2330;48.158;11.816;2024-01-07T12:07:37;9.20;;;8.60;;
4634;SDS011;2330;48.158;11.816;2024-01-07T12:10:06;9.10;;;8.48;;
4634;SDS011;2330;48.158;11.816;2024-01-07T12:12:39;8.90;;;8.27;;
4634;SDS011;2330;48.158;11.816;2024-01-07T12:15:07;7.88;;;7.28;;
4634;SDS011;2330;48.158;11.816;2024-01-07T12:17:34;8.07;;;7.47;;
4634;SDS011;2330;48.158;11.816;2024-01-07T12:20:01;8.65;;;7.95;;
4634;SDS011;2330;48.158;11.816;2024-01-07T12:22:31;8.00;;;7.40;;
4634;SDS011;2330;48.158;11.816;2024-01-07T12:25:07;8.40;;;7.80;;
4634;SDS011;2330;48.158;11.816;2024-01-07T12:27:34;8.40;;;7.80;;
4634;SDS011;2330;48.158;11.816;2024-01-07T12:30:02;8.68;;;7.95;;
4634;SDS011;2330;48.158;11.816;2024-01-07T12:32:30;8.38;;;7.70;;
4634;SDS011;2330;48.158;11.816;2024-01-07T12:34:58;7.30;;;6.80;;
4634;SDS011;2330;48.158;11.816;2024-01-07T12:37:26;7.32;;;6.82;;
4634;SDS011;2330;48.158;11.816;2024-01-07T12:39:54;7.15;;;6.65;;
4634;SDS011;2330;48.158;11.816;2024-01-07T12:42:21;7.72;;;7.13;;
4634;SDS011;2330;48.158;11.816;2024-01-07T12:44:49;8.02;;;7.43;;
4634;SDS011;2330;48.158;11.816;2024-01-07T12:47:16;7.75;;;7.25;;
4634;SDS011;2330;48.158;11.816;2024-01-07T12:49:43;8.18;;;7.50;;
4634;SDS011;2330;48.158;11.816;2024-01-07T12:52:10;7.70;;;7.10;;
4634;SDS011;2330;48.158;11.816;2024-01-07T12:54:37;7.70;;;7.20;;
4634;SDS011;2330;48.158;11.816;2024-01-07T12:57:05;7.53;;;7.03;;
4634;SDS011;2330;48.158;11.816;2024-01-07T12:59:32;8.20;;;7.60;;
4634;SDS011;2330;48.158;11.816;2024-01-07T13:01:59;8.07;;;7.55;;
4634;SDS011;2330;48.158;11.816;2024-01-07T13:04:26;8.23;;;7.63;;
4634;SDS011;2330;48.158;11.816;2024-01-07T13:06:54;7.25;;;6.75;;
4634;SDS011;2330;48.158;11.816;2024-01-07T13:09:21;7.50;;;7.00;;
4634;SDS011;2330;48.158;11.816;2024-01-07T13:11:47;7.43;;;6.93;;
4634;SDS011;2330;48.158;11.816;2024-01-07T13:14:14;8.30;;;7.60;;
4634;SDS011;2330;48.158;11.816;2024-01-07T13:16:42;7.95;;;7.45;;
4634;SDS011;2330;48.158;11.816;2024-01-07T13:19:09;8.13;;;7.53;;
4634;SDS011;2330;48.158;11.816;2024-01-07T13:21:38;7.97;;;7.38;;
4634;SDS011;2330;48.158;11.816;2024-01-07T13:24:08;8.60;;;8.00;;
4634;SDS011;2330;48.158;11.816;2024-01-07T13:26:35;8.25;;;7.65;;
4634;SDS011;2330;48.158;11.816;2024-01-07T13:29:01;7.97;;;7.47;;
4634;SDS011;2330;48.158;11.816;2024-01-07T13:31:30;8.02;;;7.47;;
4634;SDS011;2330;48.158;11.816;2024-01-07T13:33:56;8.68;;;8.02;;
4634;SDS011;2330;48.158;11.816;2024-01-07T13:36:23;7.72;;;7.22;;
4634;SDS011;2330;48.158;11.816;2024-01-07T13:38:50;7.72;;;7.20;;
4634;SDS011;2330;48.158;11.816;2024-01-07T13:41:18;8.27;;;7.68;;
4634;SDS011;2330;48.158;11.816;2024-01-07T13:43:44;7.57;;;7.03;;
4634;SDS011;2330;48.158;11.816;2024-01-07T13:46:11;7.45;;;6.93;;
4634;SDS011;2330;48.158;11.816;2024-01-07T13:48:38;9.07;;;8.38;;
4634;SDS011;2330;48.158;11.816;2024-01-07T13:51:08;9.10;;;8.40;;
4634;SDS011;2330;48.158;11.816;2024-01-07T13:53:35;8.23;;;7.65;;
4634;SDS011;2330;48.158;11.816;2024-01-07T13:56:02;8.18;;;7.50;;
4634;SDS011;2330;48.158;11.816;2024-01-07T13:58:29;7.22;;;6.65;;
4634;SDS011;2330;48.158;11.816;2024-01-07T14:00:56;8.50;;;7.70;;
4634;SDS011;2330;48.158;11.816;2024-01-07T14:03:23;8.30;;;7.70;;
4634;SDS011;2330;48.158;11.816;2024-01-07T14:05:50;8.10;;;7.50;;
4634;SDS011;2330;48.158;11.816;2024-01-07T14:08:17;8.18;;;7.57;;
4634;SDS011;2330;48.158;11.816;2024-01-07T14:10:44;7.32;;;6.85;;
4634;SDS011;2330;48.158;11.816;2024-01-07T14:13:11;7.63;;;7.03;;
4634;SDS011;2330;48.158;11.816;2024-01-07T14:15:38;8.35;;;7.75;;
4634;SDS011;2330;48.158;11.816;2024-01-07T14:18:05;7.72;;;7.22;;
4634;SDS011;2330;48.158;11.816;2024-01-07T14:20:32;8.32;;;7.68;;
4634;SDS011;2330;48.158;11.816;2024-01-07T14:22:59;8.30;;;7.70;;
4634;SDS011;2330;48.158;11.816;2024-01-07T14:25:26;8.68;;;8.07;;
4634;SDS011;2330;48.158;11.816;2024-01-07T14:27:53;8.32;;;7.63;;
4634;SDS011;2330;48.158;11.816;2024-01-07T14:30:20;7.88;;;7.38;;
4634;SDS011;2330;48.158;11.816;2024-01-07T14:32:47;7.25;;;6.85;;
4634;SDS011;2330;48.158;11.816;2024-01-07T14:35:14;8.70;;;8.10;;
4634;SDS011;2330;48.158;11.816;2024-01-07T14:37:41;8.90;;;8.25;;
4634;SDS011;2330;48.158;11.816;2024-01-07T14:40:08;8.85;;;8.20;;
4634;SDS011;2330;48.158;11.816;2024-01-07T14:42:35;7.90;;;7.32;;
4634;SDS011;2330;48.158;11.816;2024-01-07T14:45:02;8.55;;;7.93;;
4634;SDS011;2330;48.158;11.816;2024-01-07T14:47:30;7.95;;;7.35;;
4634;SDS011;2330;48.158;11.816;2024-01-07T14:49:57;7.20;;;6.70;;
4634;SDS011;2330;48.158;11.816;2024-01-07T14:52:24;8.43;;;7.82;;
4634;SDS011;2330;48.158;11.816;2024-01-07T14:54:52;8.15;;;7.65;;